Time;durP1;ratioP1;P1;durP2;ratioP2;P2;SDS_P1;SDS_P2;PMS_P1;PMS_P2;Temp;Humidity;BMP_temperature;BMP_pressure;BME280_temperature;BME280_humidity;BME280_pressure;Samples;Min_cycle;Max_cycle;Signal;HPM_P1;HPM_P2
2022/04/28 00:01:24;;;;;;;3.25;1.83;;;;;;;14.46;57.02;101332.50;4989467;28;20077;-73
2022/04/28 00:03:54;;;;;;;3.08;1.50;;;;;;;14.68;57.75;101326.06;4989645;28;20042;-74
2022/04/28 00:06:23;;;;;;;1.83;1.30;;;;;;;14.74;57.52;101323.59;4989146;28;20566;-72
2022/04/28 00:08:51;;;;;;;2.53;1.40;;;;;;;14.78;55.98;101320.22;4989524;28;20117;-77
2022/04/28 00:11:19;;;;;;;2.00;1.50;;;;;;;14.83;56.08;101322.94;4989257;28;20043;-77
2022/04/28 00:13:48;;;;;;;2.90;1.70;;;;;;;14.90;54.37;101317.00;4988688;28;20471;-77
2022/04/28 00:16:16;;;;;;;2.63;2.00;;;;;;;14.95;55.88;101317.09;4989607;28;20129;-77
2022/04/28 00:18:47;;;;;;;2.20;1.50;;;;;;;14.91;52.27;101308.31;4989317;28;20082;-77
2022/04/28 00:21:17;;;;;;;2.63;1.50;;;;;;;14.93;55.48;101309.22;4989594;28;20050;-76
2022/04/28 00:23:46;;;;;;;1.85;1.27;;;;;;;14.95;54.67;101309.28;4989062;28;20127;-76
2022/04/28 00:26:15;;;;;;;1.83;1.00;;;;;;;14.97;51.70;101312.78;4989093;28;20046;-77
2022/04/28 00:28:43;;;;;;;1.27;0.90;;;;;;;14.81;48.19;101308.97;4964934;28;20063;-74
2022/04/28 00:31:11;;;;;;;1.88;1.25;;;;;;;14.86;51.03;101302.13;4950729;28;20097;-76
2022/04/28 00:33:41;;;;;;;2.88;1.27;;;;;;;15.04;52.64;101299.91;4950020;29;20058;-80
2022/04/28 00:36:09;;;;;;;0.98;0.88;;;;;;;15.19;52.39;101296.72;4950223;28;20061;-78
2022/04/28 00:38:39;;;;;;;1.83;0.88;;;;;;;15.17;48.21;101293.22;4950592;29;20051;-77
2022/04/28 00:41:08;;;;;;;1.58;1.10;;;;;;;15.20;46.59;101293.25;4951840;29;20071;-78
2022/04/28 00:43:49;;;;;;;1.17;0.98;;;;;;;15.24;47.57;101294.22;4950757;28;20145;-76
2022/04/28 00:46:18;;;;;;;1.02;0.93;;;;;;;15.31;49.15;101285.66;4951129;29;20051;-76
2022/04/28 00:51:33;;;;;;;3.95;0.90;;;;;;;15.54;51.48;101288.69;4950000;29;20437;-78
2022/04/28 00:54:05;;;;;;;1.85;0.73;;;;;;;15.60;49.01;101294.00;4950249;29;20111;-78
2022/04/28 00:56:33;;;;;;;2.40;0.70;;;;;;;15.59;46.85;101294.84;4950566;29;20588;-82
2022/04/28 00:59:04;;;;;;;1.73;0.90;;;;;;;15.59;47.65;101286.16;4950391;29;20797;-77
2022/04/28 01:01:34;;;;;;;2.30;1.15;;;;;;;15.59;47.61;101283.53;4949618;29;20540;-76
2022/04/28 01:04:02;;;;;;;2.30;1.10;;;;;;;15.55;46.90;101287.81;4949669;29;20051;-75
2022/04/28 01:06:31;;;;;;;2.53;1.00;;;;;;;15.47;47.85;101281.59;4950090;29;20051;-73
2022/04/28 01:09:00;;;;;;;1.67;1.27;;;;;;;15.46;49.63;101279.81;4950008;28;20109;-73
2022/04/28 01:11:31;;;;;;;1.73;1.05;;;;;;;15.41;48.56;101284.97;4954261;29;20060;-77
2022/04/28 01:14:00;;;;;;;2.57;1.20;;;;;;;15.32;50.57;101260.44;4953698;29;20058;-76
2022/04/28 01:16:28;;;;;;;2.47;1.10;;;;;;;15.38;49.53;101265.78;4954091;28;20087;-78
2022/04/28 01:18:58;;;;;;;1.40;0.80;;;;;;;15.42;49.45;101270.22;4953345;29;20399;-74
2022/04/28 01:21:30;;;;;;;2.55;1.17;;;;;;;15.40;50.37;101266.69;4953423;29;20043;-82
2022/04/28 01:24:00;;;;;;;3.47;1.73;;;;;;;15.48;49.40;101279.03;4953566;29;20101;-78
2022/04/28 01:26:29;;;;;;;2.55;1.20;;;;;;;15.54;51.43;101278.25;4953154;29;20567;-77
2022/04/28 01:28:59;;;;;;;1.95;0.95;;;;;;;15.53;51.10;101271.28;4955326;28;20083;-75
2022/04/28 01:31:28;;;;;;;2.17;1.00;;;;;;;15.45;48.39;101265.03;4956044;29;20647;-77
2022/04/28 01:33:56;;;;;;;3.88;1.90;;;;;;;15.39;48.35;101262.31;4954414;29;20097;-76
2022/04/28 01:36:25;;;;;;;4.30;1.58;;;;;;;15.33;48.43;101264.84;4953768;29;20051;-78
2022/04/28 01:38:55;;;;;;;2.28;1.10;;;;;;;15.20;49.97;101261.97;4952177;29;20098;-77
2022/04/28 01:41:24;;;;;;;3.28;1.35;;;;;;;15.10;50.36;101260.06;4951713;28;20110;-77
2022/04/28 01:43:52;;;;;;;2.83;1.10;;;;;;;15.06;49.51;101263.47;4952952;29;20145;-77
2022/04/28 01:46:21;;;;;;;2.30;1.05;;;;;;;15.02;50.16;101264.25;4953147;28;20057;-76
2022/04/28 01:48:49;;;;;;;1.38;0.80;;;;;;;14.94;50.16;101252.81;4953487;29;20051;-77
2022/04/28 01:56:49;;;;;;;1.60;0.77;;;;;;;14.74;49.62;101250.66;4953301;29;20174;-75
2022/04/28 01:59:18;;;;;;;1.75;0.95;;;;;;;14.60;49.55;101246.91;4952883;29;20058;-75
2022/04/28 02:01:46;;;;;;;1.75;0.65;;;;;;;14.46;50.20;101250.06;4952271;29;20107;-75
2022/04/28 02:04:14;;;;;;;2.65;0.75;;;;;;;14.37;51.07;101249.00;4953081;29;20670;-74
2022/04/28 02:06:43;;;;;;;1.08;0.80;;;;;;;14.30;50.73;101240.16;4952726;29;20134;-75
2022/04/28 02:09:13;;;;;;;0.68;0.65;;;;;;;14.24;49.79;101243.50;4971219;28;20140;-72
2022/04/28 02:11:42;;;;;;;1.55;0.80;;;;;;;14.17;52.14;101235.53;4955772;28;20082;-77
2022/04/28 02:14:10;;;;;;;1.80;0.88;;;;;;;14.10;51.66;101241.44;4952314;29;20473;-76
2022/04/28 02:16:39;;;;;;;1.17;0.73;;;;;;;14.06;51.31;101234.41;4952300;29;20098;-73
2022/04/28 02:19:07;;;;;;;2.22;0.60;;;;;;;14.01;50.34;101242.09;4952154;29;20134;-76
2022/04/28 02:21:35;;;;;;;2.22;0.90;;;;;;;13.93;50.85;101236.72;4950979;28;20556;-73
2022/04/28 02:24:04;;;;;;;1.42;0.70;;;;;;;13.88;50.85;101240.06;4952241;29;20047;-73
2022/04/28 02:26:34;;;;;;;2.00;0.90;;;;;;;13.82;53.05;101241.66;4953511;29;20088;-72
2022/04/28 02:29:03;;;;;;;1.63;0.77;;;;;;;13.80;53.53;101239.88;4981207;28;20061;-75
2022/04/28 02:31:31;;;;;;;1.92;0.77;;;;;;;13.78;56.19;101238.97;4991522;28;20558;-75
2022/04/28 02:33:59;;;;;;;2.45;0.60;;;;;;;13.78;53.17;101241.56;4990924;28;20522;-74
2022/04/28 02:36:28;;;;;;;1.15;0.70;;;;;;;13.78;53.71;101236.34;4991271;28;20505;-76
2022/04/28 02:38:56;;;;;;;2.95;0.85;;;;;;;13.78;52.75;101241.56;4991284;28;20139;-76
2022/04/28 02:41:25;;;;;;;1.17;0.60;;;;;;;13.78;52.22;101241.56;4990081;28;20100;-75
2022/04/28 02:43:55;;;;;;;1.38;0.80;;;;;;;13.77;53.04;101239.81;4990649;28;20129;-76
2022/04/28 02:46:23;;;;;;;0.65;0.60;;;;;;;13.76;56.89;101238.03;4991468;28;20137;-77
2022/04/28 02:48:52;;;;;;;1.48;0.77;;;;;;;13.73;55.51;101236.25;4991129;28;20639;-78
2022/04/28 02:51:20;;;;;;;3.60;1.05;;;;;;;13.69;53.69;101231.81;4991016;28;20113;-79
2022/04/28 02:53:49;;;;;;;1.02;0.73;;;;;;;13.68;55.10;101242.19;4990833;28;20137;-79
2022/04/28 02:56:17;;;;;;;0.88;0.57;;;;;;;13.66;55.52;101241.28;4991374;28;20073;-78
2022/04/28 02:58:46;;;;;;;1.50;0.90;;;;;;;13.62;56.47;101235.97;4990750;28;20132;-78
2022/04/28 03:01:16;;;;;;;1.10;0.80;;;;;;;13.56;55.81;101235.84;4990437;28;20086;-77
2022/04/28 03:03:44;;;;;;;1.27;0.68;;;;;;;13.53;55.36;101238.34;4990200;28;20141;-77
2022/04/28 03:11:48;;;;;;;2.60;0.70;;;;;;;13.44;55.97;101242.44;4935893;28;20048;-77
2022/04/28 03:14:23;;;;;;;1.23;0.88;;;;;;;13.41;55.64;101240.66;4990209;28;20110;-75
2022/04/28 03:16:53;;;;;;;2.50;0.80;;;;;;;13.38;57.47;101250.97;4990312;28;20172;-75
2022/04/28 03:19:21;;;;;;;1.58;0.70;;;;;;;13.32;57.59;101246.47;4989907;28;20193;-75
2022/04/28 03:21:50;;;;;;;1.13;0.75;;;;;;;13.28;57.66;101246.38;4990370;28;20559;-76
2022/04/28 03:24:18;;;;;;;1.17;0.70;;;;;;;13.23;57.28;101246.22;4993033;28;20667;-75
2022/04/28 03:26:47;;;;;;;0.80;0.60;;;;;;;13.21;57.51;101242.69;4990574;28;20057;-76
2022/04/28 03:29:15;;;;;;;1.35;0.90;;;;;;;13.19;57.79;101240.06;4962658;28;20122;-77
2022/04/28 03:31:44;;;;;;;2.08;0.80;;;;;;;13.15;57.43;101233.03;4951533;28;20073;-76
2022/04/28 03:34:14;;;;;;;5.15;0.93;;;;;;;13.13;57.02;101239.91;4951109;29;20051;-76
2022/04/28 03:36:54;;;;;;;1.63;0.80;;;;;;;13.10;57.36;101242.41;4951206;29;20123;-75
2022/04/28 03:39:23;;;;;;;1.95;0.90;;;;;;;13.08;58.60;101250.97;4951596;29;20098;-76
2022/04/28 03:41:51;;;;;;;2.47;0.77;;;;;;;12.96;59.60;101235.94;4950898;29;20075;-76
2022/04/28 03:44:20;;;;;;;1.33;1.00;;;;;;;12.97;58.80;101253.31;4951281;29;20118;-76
2022/04/28 03:46:48;;;;;;;1.10;0.63;;;;;;;12.95;59.47;101255.84;4951175;29;20055;-76
2022/04/28 03:49:18;;;;;;;1.73;0.98;;;;;;;12.95;61.63;101254.97;4951289;29;20058;-76
2022/04/28 03:51:47;;;;;;;1.25;0.90;;;;;;;12.92;62.50;101257.50;4950651;29;20051;-76
2022/04/28 03:54:15;;;;;;;4.28;1.20;;;;;;;12.89;62.09;101249.59;4950714;29;20059;-76
2022/04/28 03:56:43;;;;;;;2.95;1.08;;;;;;;12.88;62.19;101247.88;4950943;29;20340;-75
2022/04/28 03:59:12;;;;;;;2.15;1.20;;;;;;;12.85;62.02;101247.75;4950614;29;20522;-75
2022/04/28 04:01:41;;;;;;;2.10;1.02;;;;;;;12.79;61.91;101249.34;4950730;28;20101;-75
2022/04/28 04:04:09;;;;;;;2.67;1.30;;;;;;;12.76;62.50;101245.81;4950639;29;20130;-75
2022/04/28 04:06:39;;;;;;;2.28;0.75;;;;;;;12.74;61.42;101250.94;4950693;29;20101;-75
2022/04/28 04:09:14;;;;;;;1.95;0.98;;;;;;;12.71;61.84;101255.16;4949865;29;20140;-77
2022/04/28 04:11:42;;;;;;;2.42;1.00;;;;;;;12.69;61.43;101249.94;4950496;29;20059;-75
2022/04/28 04:14:11;;;;;;;2.63;1.30;;;;;;;12.68;63.58;101266.34;4950560;29;20489;-75
2022/04/28 04:16:39;;;;;;;2.50;1.50;;;;;;;12.61;64.84;101258.34;4950911;28;20086;-76
2022/04/28 04:19:08;;;;;;;2.38;1.52;;;;;;;12.61;65.29;101263.53;4951454;29;20047;-73
2022/04/28 04:21:39;;;;;;;4.97;1.17;;;;;;;12.57;64.92;101263.44;4951755;29;20051;-75
2022/04/28 04:24:08;;;;;;;1.98;1.10;;;;;;;12.50;63.03;101268.38;4950577;29;20406;-75
2022/04/28 04:26:36;;;;;;;4.00;1.20;;;;;;;12.50;64.90;101271.00;4950336;29;20489;-75
2022/04/28 04:29:05;;;;;;;2.75;1.30;;;;;;;12.47;65.10;101281.28;4952411;28;20584;-74
2022/04/28 04:34:18;;;;;;;1.35;0.80;;;;;;;12.40;64.67;101279.34;4950783;29;20126;-76
2022/04/28 04:36:49;;;;;;;1.38;0.85;;;;;;;12.36;64.03;101276.63;4950516;29;20106;-75
2022/04/28 04:39:17;;;;;;;0.93;0.65;;;;;;;12.32;64.80;101277.41;4950303;29;20106;-74
2022/04/28 04:41:45;;;;;;;1.35;0.65;;;;;;;12.28;64.12;101278.13;4949908;29;20130;-76
2022/04/28 04:44:14;;;;;;;1.25;0.80;;;;;;;12.23;63.40;101284.91;4949815;29;20047;-73
2022/04/28 04:46:43;;;;;;;1.48;0.85;;;;;;;12.17;63.80;101281.22;4950282;29;20055;-78
2022/04/28 04:49:12;;;;;;;1.52;0.60;;;;;;;12.10;63.54;101283.63;4949918;29;20047;-74
2022/04/28 04:51:41;;;;;;;1.05;0.63;;;;;;;12.03;63.77;101275.63;4949203;29;20047;-74
2022/04/28 04:54:11;;;;;;;1.70;0.70;;;;;;;11.98;63.21;101279.75;4949728;29;20386;-74
2022/04/28 04:56:39;;;;;;;2.30;0.75;;;;;;;11.90;63.59;101282.97;4950605;29;20051;-74
2022/04/28 04:59:08;;;;;;;1.10;0.80;;;;;;;11.86;63.63;101275.88;4948743;29;20489;-77
2022/04/28 05:01:36;;;;;;;1.52;0.80;;;;;;;11.82;64.70;101274.06;4949702;29;20051;-79
2022/04/28 05:04:06;;;;;;;2.08;0.75;;;;;;;11.79;65.11;101284.31;4949752;29;20083;-76
2022/04/28 05:06:34;;;;;;;0.90;0.60;;;;;;;11.73;64.53;101278.94;4950152;29;20051;-73
2022/04/28 05:09:03;;;;;;;1.00;0.70;;;;;;;11.66;65.04;101282.13;4949661;29;20142;-74
2022/04/28 05:11:33;;;;;;;0.75;0.52;;;;;;;11.62;65.14;101273.38;4949691;28;20103;-75
2022/04/28 05:14:01;;;;;;;3.60;1.00;;;;;;;11.61;66.14;101273.31;4950343;29;20109;-75
2022/04/28 05:16:30;;;;;;;0.63;0.50;;;;;;;11.56;66.96;101272.28;4952655;29;20062;-77
2022/04/28 05:18:58;;;;;;;1.10;0.60;;;;;;;11.49;67.15;101266.91;4950491;28;20110;-77
2022/04/28 05:21:27;;;;;;;2.53;0.70;;;;;;;11.46;66.87;101264.22;4950008;29;20117;-75
2022/04/28 05:23:55;;;;;;;1.27;0.63;;;;;;;11.43;66.50;101258.03;4949771;29;20437;-77
2022/04/28 05:26:23;;;;;;;1.85;0.70;;;;;;;11.42;66.98;101258.88;4950006;28;20461;-75
2022/04/28 05:28:54;;;;;;;2.38;0.80;;;;;;;11.39;65.40;101263.97;4952103;28;20062;-75
2022/04/28 05:31:22;;;;;;;0.68;0.40;;;;;;;11.34;65.80;101263.81;4949928;29;20047;-76
2022/04/28 05:33:50;;;;;;;0.90;0.60;;;;;;;11.26;65.97;101249.69;4949473;29;20051;-77
2022/04/28 05:36:20;;;;;;;1.13;0.50;;;;;;;11.27;67.19;101251.44;4949672;29;20058;-73
2022/04/28 05:38:49;;;;;;;0.70;0.55;;;;;;;11.25;67.43;101243.63;4950336;28;20166;-73
2022/04/28 05:41:17;;;;;;;0.95;0.50;;;;;;;11.23;66.37;101249.59;4949782;29;20078;-75
2022/04/28 05:46:33;;;;;;;1.90;0.60;;;;;;;11.17;66.92;101239.00;4950104;29;20722;-76
2022/04/28 05:49:01;;;;;;;0.60;0.40;;;;;;;11.16;66.91;101242.44;4949891;29;20043;-78
2022/04/28 05:51:30;;;;;;;1.05;0.60;;;;;;;11.15;68.09;101240.66;4949246;29;20089;-77
2022/04/28 05:53:58;;;;;;;1.35;0.52;;;;;;;11.11;68.38;101237.97;4949663;29;20051;-76
2022/04/28 05:56:27;;;;;;;0.90;0.45;;;;;;;11.09;68.00;101246.53;4951908;28;20552;-76
2022/04/28 05:58:56;;;;;;;0.63;0.50;;;;;;;11.04;67.54;101248.03;4953356;28;20047;-75
2022/04/28 06:01:24;;;;;;;1.40;0.75;;;;;;;11.02;68.56;101232.47;4952364;28;20047;-75
2022/04/28 06:03:54;;;;;;;2.05;0.73;;;;;;;11.01;68.28;101238.47;4952820;29;20083;-74
2022/04/28 06:06:23;;;;;;;1.27;0.80;;;;;;;10.99;67.34;101237.53;4953024;29;20047;-75
2022/04/28 06:08:51;;;;;;;1.30;0.50;;;;;;;10.97;68.45;101231.44;4952296;29;20079;-76
2022/04/28 06:11:20;;;;;;;1.10;0.60;;;;;;;10.96;68.91;101221.91;4952781;29;20083;-76
2022/04/28 06:13:48;;;;;;;0.82;0.43;;;;;;;10.96;69.32;101227.06;4955831;29;20095;-75
2022/04/28 06:16:17;;;;;;;1.67;0.70;;;;;;;10.94;69.40;101215.78;4953010;29;20058;-76
2022/04/28 06:18:45;;;;;;;1.17;0.68;;;;;;;10.92;70.00;101227.78;4953224;29;20106;-75
2022/04/28 06:21:15;;;;;;;1.75;0.57;;;;;;;10.86;69.83;101230.19;4952962;29;20055;-74
2022/04/28 06:23:44;;;;;;;3.38;0.80;;;;;;;10.79;70.57;101217.81;4952246;29;20055;-76
2022/04/28 06:26:13;;;;;;;0.73;0.63;;;;;;;10.79;71.43;101217.81;4952951;29;20560;-75
2022/04/28 06:28:42;;;;;;;1.20;0.60;;;;;;;10.79;70.61;101210.03;4954553;28;20529;-76
2022/04/28 06:31:10;;;;;;;1.20;0.65;;;;;;;10.78;70.06;101208.28;4952437;29;20601;-75
2022/04/28 06:33:42;;;;;;;0.50;0.40;;;;;;;10.71;71.65;101206.31;4952573;29;20075;-75
2022/04/28 06:36:10;;;;;;;1.97;0.70;;;;;;;10.69;70.54;101209.72;4952477;28;20190;-75
2022/04/28 06:38:40;;;;;;;2.72;0.70;;;;;;;10.72;72.67;101208.97;4952928;29;20080;-75
2022/04/28 06:41:09;;;;;;;1.48;0.95;;;;;;;10.71;72.37;101209.78;4952110;29;20047;-75
2022/04/28 06:43:38;;;;;;;1.10;0.68;;;;;;;10.72;72.51;101202.88;4952369;29;20047;-77
2022/04/28 06:46:15;;;;;;;1.52;0.70;;;;;;;10.71;71.71;101201.16;4952454;29;20047;-75
2022/04/28 06:48:43;;;;;;;3.60;1.05;;;;;;;10.69;71.51;101204.53;4951972;29;20063;-74
2022/04/28 06:51:12;;;;;;;0.52;0.38;;;;;;;10.69;71.50;101199.34;4952116;29;20061;-74
2022/04/28 06:53:42;;;;;;;1.45;0.63;;;;;;;10.68;71.25;101192.44;4952335;29;20043;-76
2022/04/28 06:56:10;;;;;;;1.60;0.77;;;;;;;10.67;72.18;101190.69;4952089;28;20059;-74
2022/04/28 06:58:39;;;;;;;0.80;0.47;;;;;;;10.68;71.33;101192.44;4951925;29;20086;-75
2022/04/28 07:01:07;;;;;;;1.13;0.50;;;;;;;10.68;71.83;101189.84;4950901;29;20507;-75
2022/04/28 07:03:36;;;;;;;0.82;0.55;;;;;;;10.67;71.28;101177.75;4951744;29;20565;-76
2022/04/28 07:06:04;;;;;;;0.65;0.60;;;;;;;10.67;71.84;101184.59;4952062;28;20103;-75
2022/04/28 07:08:33;;;;;;;2.88;0.45;;;;;;;10.66;71.10;101178.56;4950978;28;20137;-75
2022/04/28 07:11:03;;;;;;;1.00;0.50;;;;;;;10.66;71.06;101177.69;4954598;29;20075;-74
2022/04/28 07:13:31;;;;;;;0.47;0.43;;;;;;;10.64;70.70;101172.44;4951476;29;20043;-75
2022/04/28 07:15:59;;;;;;;2.55;1.00;;;;;;;10.63;71.07;101173.28;4951217;29;20055;-75
2022/04/28 07:18:28;;;;;;;1.60;0.63;;;;;;;10.63;71.24;101178.47;4952299;29;20507;-75
2022/04/28 07:20:58;;;;;;;1.85;0.57;;;;;;;10.61;71.44;101171.47;4951661;28;20087;-75
2022/04/28 07:23:26;;;;;;;2.63;0.45;;;;;;;10.56;70.83;101153.19;4951080;29;20503;-74
2022/04/28 07:25:55;;;;;;;0.75;0.50;;;;;;;10.60;70.97;101162.81;4951346;29;20106;-74
2022/04/28 07:28:25;;;;;;;1.45;0.50;;;;;;;10.60;70.65;101161.94;4953635;28;20058;-75
2022/04/28 07:30:53;;;;;;;0.98;0.40;;;;;;;10.56;70.95;101166.13;4951575;29;20051;-75
2022/04/28 07:33:22;;;;;;;3.08;0.63;;;;;;;10.56;70.54;101160.97;4951428;29;20055;-75
2022/04/28 07:35:50;;;;;;;2.25;0.75;;;;;;;10.52;70.48;101159.06;4951238;29;20161;-75
2022/04/28 07:38:18;;;;;;;2.75;0.60;;;;;;;10.52;68.45;101158.19;4951870;28;20051;-75
2022/04/28 07:40:47;;;;;;;0.88;0.70;;;;;;;10.46;70.48;101144.19;4951374;29;20047;-75
2022/04/28 07:43:16;;;;;;;0.50;0.38;;;;;;;10.52;71.19;101156.50;4950985;29;20062;-76
2022/04/28 07:45:46;;;;;;;2.00;0.40;;;;;;;10.50;69.20;101154.69;4951199;29;20102;-75
2022/04/28 07:48:14;;;;;;;0.70;0.70;;;;;;;10.48;69.21;101152.03;4951139;29;20109;-75
2022/04/28 07:50:43;;;;;;;0.82;0.40;;;;;;;10.47;68.71;101153.72;4950856;29;20497;-74
2022/04/28 07:53:11;;;;;;;1.33;0.50;;;;;;;10.46;68.06;101148.50;4951044;29;20505;-75
2022/04/28 07:55:40;;;;;;;0.70;0.70;;;;;;;10.45;68.47;101146.75;4950815;29;20137;-74
2022/04/28 07:58:08;;;;;;;1.90;0.60;;;;;;;10.43;68.93;101149.28;4951161;29;20607;-74
2022/04/28 08:00:37;;;;;;;1.95;0.32;;;;;;;10.44;68.74;101150.16;4950504;29;20059;-74
2022/04/28 08:03:07;;;;;;;1.08;0.50;;;;;;;10.43;69.02;101148.41;4950205;28;20039;-74
2022/04/28 08:05:36;;;;;;;0.80;0.40;;;;;;;10.42;70.01;101141.44;4951358;29;20054;-74
2022/04/28 08:08:04;;;;;;;0.52;0.40;;;;;;;10.38;70.57;101140.47;4952616;29;20102;-74
2022/04/28 08:10:32;;;;;;;2.78;0.40;;;;;;;10.36;71.77;101142.13;4951256;28;20059;-75
2022/04/28 08:13:01;;;;;;;0.70;0.50;;;;;;;10.32;71.32;101139.34;4950024;29;20589;-74
2022/04/28 08:15:30;;;;;;;1.27;0.68;;;;;;;10.30;71.92;101133.25;4951405;28;20125;-73
2022/04/28 08:17:59;;;;;;;1.35;0.50;;;;;;;10.27;71.66;101126.22;4950533;29;20043;-74
2022/04/28 08:20:29;;;;;;;1.98;0.60;;;;;;;10.15;72.56;101126.66;4949850;28;20501;-74
2022/04/28 08:22:57;;;;;;;2.55;0.70;;;;;;;10.24;72.54;101120.97;4949744;29;20051;-74
2022/04/28 08:25:26;;;;;;;1.45;0.60;;;;;;;10.22;73.06;101120.88;4950723;29;20139;-74
2022/04/28 08:27:54;;;;;;;1.60;0.65;;;;;;;10.17;73.31;101109.50;4950274;29;20091;-74
2022/04/28 08:30:25;;;;;;;1.65;0.77;;;;;;;10.19;74.27;101115.63;4952353;28;20118;-74
2022/04/28 08:32:53;;;;;;;2.00;0.70;;;;;;;10.16;75.22;101118.06;4950415;29;20079;-73
2022/04/28 08:35:22;;;;;;;1.08;0.52;;;;;;;10.10;75.17;101107.53;4950230;29;20090;-73
2022/04/28 08:37:52;;;;;;;1.10;0.57;;;;;;;10.06;75.48;101110.81;4950589;29;20059;-73
2022/04/28 08:40:20;;;;;;;1.13;0.57;;;;;;;10.11;76.57;101118.72;4950411;29;20102;-73
2022/04/28 08:42:50;;;;;;;1.75;0.45;;;;;;;10.07;76.31;101117.72;4950375;29;20129;-73
2022/04/28 08:45:23;;;;;;;0.77;0.52;;;;;;;10.07;76.01;101112.56;4950879;28;20058;-75
2022/04/28 08:47:53;;;;;;;0.52;0.40;;;;;;;10.05;75.68;101119.38;4950119;29;20071;-73
2022/04/28 08:50:25;;;;;;;1.83;0.68;;;;;;;10.04;75.31;101112.44;4950747;29;20159;-73
2022/04/28 08:52:57;;;;;;;0.57;0.40;;;;;;;10.03;73.86;101113.25;4950274;28;20146;-73
2022/04/28 08:55:26;;;;;;;2.58;0.43;;;;;;;10.03;74.11;101111.56;4949649;29;20313;-74
2022/04/28 08:57:54;;;;;;;0.98;0.40;;;;;;;10.03;73.85;101113.25;4949572;28;20557;-74
2022/04/28 09:00:23;;;;;;;1.27;0.45;;;;;;;10.01;74.42;101109.72;4949918;29;20557;-73
2022/04/28 09:02:52;;;;;;;2.63;0.82;;;;;;;10.04;73.64;101112.44;4950122;29;20502;-74
2022/04/28 09:05:21;;;;;;;0.73;0.50;;;;;;;10.03;74.09;101115.84;4953299;29;20051;-74
2022/04/28 09:07:49;;;;;;;3.33;0.60;;;;;;;10.02;74.67;101114.09;4959204;28;20137;-74
2022/04/28 09:10:31;;;;;;;2.10;0.63;;;;;;;10.01;73.36;101114.91;4964521;28;20090;-74
2022/04/28 09:15:50;;;;;;;0.80;0.40;;;;;;;10.00;73.52;101105.41;4949294;29;20517;-74
2022/04/28 09:18:19;;;;;;;1.83;0.57;;;;;;;9.99;74.84;101108.81;4950348;29;20118;-74
2022/04/28 09:20:48;;;;;;;1.60;0.60;;;;;;;9.98;74.76;101101.88;4950203;28;20051;-74
2022/04/28 09:23:18;;;;;;;0.68;0.50;;;;;;;9.98;75.37;101101.88;4949719;29;20540;-74
2022/04/28 09:25:48;;;;;;;0.68;0.50;;;;;;;9.94;75.40;101097.41;4949879;29;20130;-73
2022/04/28 09:28:16;;;;;;;0.73;0.47;;;;;;;9.94;76.94;101095.72;4952380;28;20091;-74
2022/04/28 09:30:53;;;;;;;1.65;0.57;;;;;;;9.94;76.80;101092.22;4955603;28;20051;-74
2022/04/28 09:33:22;;;;;;;2.92;0.52;;;;;;;9.90;79.49;101099.00;4953399;29;20055;-73
2022/04/28 09:35:51;;;;;;;2.97;0.50;;;;;;;9.89;78.77;101096.34;4953371;29;20587;-74
2022/04/28 09:38:20;;;;;;;1.10;0.50;;;;;;;9.88;78.54;101097.19;4954146;29;20408;-74
2022/04/28 09:43:37;;;;;;;2.53;0.40;;;;;;;9.92;77.79;101088.72;4953622;29;20058;-74
2022/04/28 09:46:07;;;;;;;3.72;0.88;;;;;;;9.93;76.05;101093.94;4953110;29;20122;-73
2022/04/28 09:48:36;;;;;;;1.73;0.75;;;;;;;9.93;76.55;101085.31;4953276;29;20054;-75
2022/04/28 09:51:06;;;;;;;0.57;0.40;;;;;;;9.94;77.33;101090.56;4953170;28;20082;-75
2022/04/28 09:53:36;;;;;;;1.17;0.60;;;;;;;9.94;76.08;101093.13;4953393;29;20050;-76
2022/04/28 09:56:08;;;;;;;0.68;0.38;;;;;;;9.95;76.61;101097.47;4952927;29;20505;-75
2022/04/28 09:58:38;;;;;;;2.00;0.70;;;;;;;9.95;76.20;101096.59;4953599;29;20134;-77
2022/04/28 10:01:07;;;;;;;0.77;0.50;;;;;;;9.93;76.27;101090.47;4953036;29;20524;-74
2022/04/28 10:03:39;;;;;;;1.20;0.60;;;;;;;9.93;75.95;101090.47;4955549;29;20047;-75
2022/04/28 10:06:08;;;;;;;1.08;0.70;;;;;;;9.93;76.49;101087.91;4953747;29;20090;-74
2022/04/28 10:08:37;;;;;;;2.65;0.50;;;;;;;9.95;76.28;101087.13;4966546;28;20050;-75
2022/04/28 10:11:10;;;;;;;1.38;0.60;;;;;;;9.96;75.77;101082.84;4960495;28;20055;-75
2022/04/28 10:13:41;;;;;;;3.40;0.65;;;;;;;9.93;76.29;101081.03;4953049;29;20139;-74
2022/04/28 10:16:13;;;;;;;1.55;0.90;;;;;;;9.94;76.17;101084.47;4953026;29;20043;-74
2022/04/28 10:18:46;;;;;;;1.52;0.88;;;;;;;9.90;76.85;101077.47;4952938;29;20051;-75
2022/04/28 10:21:21;;;;;;;2.25;1.25;;;;;;;9.91;77.53;101076.63;4953293;29;20051;-75
2022/04/28 10:32:56;;;;;;;1.92;0.90;;;;;;;9.87;77.89;101078.19;4991882;28;20096;-73
2022/04/28 10:35:54;;;;;;;4.47;1.10;;;;;;;9.86;78.18;101079.03;4952718;28;20130;-73
2022/04/28 10:38:24;;;;;;;1.77;0.88;;;;;;;9.86;79.08;101073.88;4944292;29;20055;-73
2022/04/28 10:41:05;;;;;;;0.77;0.63;;;;;;;9.88;79.05;101079.09;4952183;29;20479;-74
2022/04/28 10:43:40;;;;;;;1.15;0.63;;;;;;;9.85;77.85;101075.56;4951213;28;20486;-75
2022/04/28 10:46:33;;;;;;;1.27;0.70;;;;;;;9.79;77.65;101082.22;4968815;28;20051;-74
2022/04/28 10:49:04;;;;;;;3.10;0.63;;;;;;;9.77;78.64;101089.03;4952642;28;20501;-74
2022/04/28 10:51:33;;;;;;;2.28;0.70;;;;;;;9.75;78.97;101081.19;4971644;28;20681;-74
2022/04/28 10:54:10;;;;;;;2.63;0.70;;;;;;;9.76;77.82;101085.56;4970907;28;20058;-74
2022/04/28 10:56:56;;;;;;;1.75;1.15;;;;;;;9.75;78.00;101088.09;4971641;28;20520;-74
2022/04/28 10:59:40;;;;;;;0.70;0.60;;;;;;;9.73;77.44;101090.59;4971812;28;20117;-74
2022/04/28 11:02:41;;;;;;;0.60;0.57;;;;;;;9.72;77.91;101088.84;4973669;28;20543;-75
2022/04/28 11:05:37;;;;;;;1.95;0.50;;;;;;;9.71;77.10;101089.69;4965884;28;20050;-74
2022/04/28 11:08:06;;;;;;;1.20;0.57;;;;;;;9.68;76.15;101080.91;4970518;28;20082;-74
2022/04/28 11:10:36;;;;;;;1.05;0.65;;;;;;;9.65;77.41;101081.69;4971292;28;20078;-74
2022/04/28 11:13:11;;;;;;;2.20;0.80;;;;;;;9.64;76.68;101079.91;4970526;28;20428;-74
2022/04/28 11:15:41;;;;;;;1.73;0.85;;;;;;;9.62;77.82;101086.72;4971096;28;20098;-74
2022/04/28 11:18:11;;;;;;;2.70;0.55;;;;;;;9.62;77.72;101081.56;4965039;28;20055;-73
2022/04/28 11:20:40;;;;;;;2.15;0.75;;;;;;;9.62;76.82;101087.63;4970510;28;20540;-74
2022/04/28 11:23:08;;;;;;;1.30;0.60;;;;;;;9.60;75.61;101089.25;4970746;28;20042;-74
2022/04/28 11:25:37;;;;;;;1.60;0.50;;;;;;;9.59;76.26;101084.91;4971325;28;20050;-74
2022/04/28 11:28:09;;;;;;;0.75;0.40;;;;;;;9.57;76.26;101088.25;4970706;28;20047;-74
2022/04/28 11:30:44;;;;;;;4.33;0.40;;;;;;;9.55;76.34;101084.72;4957820;28;20055;-74
2022/04/28 11:33:13;;;;;;;1.77;0.50;;;;;;;9.55;76.61;101084.72;4951035;29;20043;-74
2022/04/28 11:35:42;;;;;;;4.15;0.50;;;;;;;9.55;76.62;101084.72;4951277;28;20482;-74
2022/04/28 11:38:11;;;;;;;1.65;0.55;;;;;;;9.53;76.64;101084.69;4951559;29;20166;-74
2022/04/28 11:40:44;;;;;;;1.77;0.30;;;;;;;9.50;77.19;101084.53;4951738;29;20420;-75
2022/04/28 11:43:12;;;;;;;0.80;0.40;;;;;;;9.50;76.56;101086.25;4950858;29;20085;-74
2022/04/28 11:45:42;;;;;;;0.82;0.50;;;;;;;9.49;76.87;101089.69;4951734;29;20055;-75
2022/04/28 11:48:13;;;;;;;2.05;0.40;;;;;;;9.47;77.70;101086.16;4950086;29;20058;-74
2022/04/28 11:50:41;;;;;;;0.95;0.73;;;;;;;9.48;79.73;101087.91;4951586;29;20130;-74
2022/04/28 11:53:12;;;;;;;0.93;0.70;;;;;;;9.47;78.77;101087.03;4950248;28;20110;-74
2022/04/28 11:55:41;;;;;;;1.67;0.70;;;;;;;9.47;79.24;101091.31;4951295;29;20051;-74
2022/04/28 11:58:11;;;;;;;2.20;0.50;;;;;;;9.42;79.17;101079.09;4951470;29;20640;-75
2022/04/28 12:00:41;;;;;;;1.67;0.52;;;;;;;9.41;78.66;101091.94;4954643;29;20051;-76
2022/04/28 12:03:11;;;;;;;0.93;0.55;;;;;;;9.41;78.03;101086.78;4950997;29;20134;-75
2022/04/28 12:05:40;;;;;;;4.25;0.77;;;;;;;9.39;77.92;101084.16;4951256;29;20127;-76
2022/04/28 12:08:08;;;;;;;1.33;0.80;;;;;;;9.37;77.94;101080.63;4950514;29;20119;-75
2022/04/28 12:16:10;;;;;;;2.38;0.77;;;;;;;9.29;79.01;101082.00;4950960;29;20142;-75
2022/04/28 12:21:33;;;;;;;3.28;0.80;;;;;;;9.28;77.88;101084.50;4951187;29;20053;-76